createdAt,value
2023-04-14T00:00:54.082Z,13.30
2023-04-14T00:03:22.182Z,13.80
2023-04-14T00:05:50.320Z,13.90
2023-04-14T00:08:18.235Z,14.60
2023-04-14T00:10:46.125Z,14.10
2023-04-14T00:13:14.049Z,14.30
2023-04-14T00:15:42.780Z,14.30
2023-04-14T00:18:10.893Z,13.60
2023-04-14T00:20:38.921Z,14.10
2023-04-14T00:23:06.817Z,14.90
2023-04-14T00:25:34.671Z,14.30
2023-04-14T00:28:02.633Z,14.30
2023-04-14T00:30:30.917Z,15.40
2023-04-14T00:32:58.922Z,14.80
2023-04-14T00:35:26.918Z,14.90
2023-04-14T00:37:57.047Z,14.30
2023-04-14T00:40:25.314Z,14.50
2023-04-14T00:42:53.287Z,14.10
2023-04-14T00:45:21.259Z,13.60
2023-04-14T00:47:50.856Z,12.20
2023-04-14T00:50:21.074Z,11.70
2023-04-14T00:52:50.698Z,11.30
2023-04-14T00:55:22.537Z,10.60
2023-04-14T00:57:51.160Z,10.40
2023-04-14T01:00:19.888Z,10.70
2023-04-14T01:02:47.953Z,11.40
2023-04-14T01:05:16.320Z,11.00
2023-04-14T01:07:45.620Z,10.40
2023-04-14T01:10:13.680Z,11.50
2023-04-14T01:12:57.602Z,13.00
2023-04-14T01:15:51.996Z,13.80
2023-04-14T01:18:36.313Z,12.50
2023-04-14T01:21:13.405Z,12.40
2023-04-14T01:23:50.213Z,13.40
2023-04-14T01:26:26.482Z,14.10
2023-04-14T01:29:24.580Z,13.70
2023-04-14T01:32:10.343Z,13.50
2023-04-14T01:34:50.699Z,14.50
2023-04-14T01:37:30.383Z,14.10
2023-04-14T01:40:03.774Z,14.00
2023-04-14T01:45:16.522Z,13.90
2023-04-14T01:47:45.477Z,13.00
2023-04-14T01:50:15.107Z,13.20
2023-04-14T01:52:47.961Z,12.10
2023-04-14T01:55:19.458Z,12.60
2023-04-14T01:57:51.235Z,12.60
2023-04-14T02:00:20.743Z,12.10
2023-04-14T02:02:52.455Z,12.20
2023-04-14T02:05:22.566Z,12.30
2023-04-14T02:07:53.265Z,13.00
2023-04-14T02:10:22.326Z,13.10
2023-04-14T02:12:52.986Z,11.50
2023-04-14T02:15:23.512Z,12.60
2023-04-14T02:17:53.060Z,12.00
2023-04-14T02:20:22.275Z,11.50
2023-04-14T02:22:50.316Z,10.80
2023-04-14T02:25:18.271Z,9.20
2023-04-14T02:27:52.543Z,10.40
2023-04-14T02:30:33.151Z,10.20
2023-04-14T02:33:05.637Z,10.40
2023-04-14T02:35:46.321Z,10.00
2023-04-14T02:38:21.981Z,10.30
2023-04-14T02:40:50.838Z,9.00
2023-04-14T02:43:32.391Z,10.60
2023-04-14T02:46:05.613Z,10.50
2023-04-14T02:48:35.072Z,11.40
2023-04-14T02:51:06.069Z,10.50
2023-04-14T02:53:34.927Z,11.10
2023-04-14T02:56:27.205Z,11.90
2023-04-14T02:58:58.170Z,11.90
2023-04-14T03:01:27.890Z,11.30
2023-04-14T03:03:57.953Z,12.10
2023-04-14T03:06:28.923Z,10.50
2023-04-14T03:08:58.315Z,8.10
2023-04-14T03:11:28.101Z,11.00
2023-04-14T03:13:57.651Z,11.30
2023-04-14T03:16:27.737Z,9.60
2023-04-14T03:18:56.703Z,11.70
2023-04-14T03:21:26.769Z,10.70
2023-04-14T03:23:56.383Z,11.80
2023-04-14T03:26:27.575Z,12.00
2023-04-14T03:28:59.952Z,9.00
2023-04-14T03:31:37.287Z,10.60
2023-04-14T03:34:08.334Z,10.30
2023-04-14T03:36:41.332Z,10.60
2023-04-14T03:39:12.670Z,12.50
2023-04-14T03:41:48.010Z,11.50
2023-04-14T03:44:19.160Z,11.60
2023-04-14T03:46:49.553Z,11.40
2023-04-14T03:49:21.054Z,11.20
2023-04-14T03:51:53.459Z,10.60
2023-04-14T03:54:24.356Z,11.40
2023-04-14T03:56:56.973Z,10.40
2023-04-14T03:59:27.720Z,9.40
2023-04-14T04:01:56.661Z,9.80
2023-04-14T04:04:25.970Z,10.60
2023-04-14T04:06:54.139Z,10.50
2023-04-14T04:09:24.756Z,10.60
2023-04-14T04:11:53.997Z,10.60
2023-04-14T04:14:25.529Z,10.20
2023-04-14T04:16:56.644Z,11.10
2023-04-14T04:19:26.377Z,10.30
2023-04-14T04:22:00.069Z,8.80
2023-04-14T04:24:32.690Z,10.30
2023-04-14T04:27:01.438Z,9.50
2023-04-14T04:29:32.143Z,10.50
2023-04-14T04:32:01.167Z,10.10
2023-04-14T04:34:32.428Z,10.70
2023-04-14T04:37:02.261Z,10.60
2023-04-14T04:39:30.813Z,10.50
2023-04-14T04:42:07.084Z,10.80
2023-04-14T04:44:35.329Z,10.30
2023-04-14T04:47:04.183Z,10.70
2023-04-14T04:49:32.065Z,9.90
2023-04-14T04:52:03.676Z,10.70
2023-04-14T04:54:31.692Z,10.00
2023-04-14T04:57:00.094Z,7.30
2023-04-14T04:59:28.112Z,9.30
2023-04-14T05:01:56.488Z,8.90
2023-04-14T05:04:24.768Z,7.60
2023-04-14T05:06:52.658Z,8.10
2023-04-14T05:09:20.507Z,7.70
2023-04-14T05:11:48.665Z,8.00
2023-04-14T05:14:16.580Z,8.40
2023-04-14T05:16:44.460Z,7.70
2023-04-14T05:19:12.369Z,7.60
2023-04-14T05:21:40.538Z,7.30
2023-04-14T05:24:09.078Z,7.60
2023-04-14T05:26:57.875Z,7.20
2023-04-14T05:29:24.871Z,7.40
2023-04-14T05:31:52.873Z,7.70
2023-04-14T05:34:20.787Z,7.10
2023-04-14T05:36:48.758Z,6.50
2023-04-14T05:39:16.762Z,5.80
2023-04-14T05:41:44.784Z,6.20
2023-04-14T05:44:14.914Z,6.30
2023-04-14T05:46:42.913Z,5.50
2023-04-14T05:49:10.889Z,5.80
2023-04-14T05:51:39.960Z,6.30
2023-04-14T05:54:08.144Z,5.70
2023-04-14T05:56:36.499Z,6.00
2023-04-14T05:59:04.365Z,6.60
2023-04-14T06:01:32.375Z,5.90
2023-04-14T06:04:00.906Z,6.70
2023-04-14T06:06:29.509Z,5.60
2023-04-14T06:08:57.435Z,6.40
2023-04-14T06:11:25.617Z,5.90
2023-04-14T06:13:53.580Z,6.30
2023-04-14T06:16:21.605Z,6.10
2023-04-14T06:18:49.614Z,6.50
2023-04-14T06:21:17.588Z,6.30
2023-04-14T06:23:45.640Z,5.10
2023-04-14T06:26:14.007Z,6.40
2023-04-14T06:28:43.957Z,6.10
2023-04-14T06:31:14.256Z,6.60
2023-04-14T06:33:42.330Z,6.20
2023-04-14T06:36:10.607Z,6.50
2023-04-14T06:38:38.909Z,6.70
2023-04-14T06:41:07.267Z,7.60
2023-04-14T06:43:35.305Z,6.40
2023-04-14T06:46:03.212Z,5.80
2023-04-14T06:48:31.638Z,5.20
2023-04-14T06:50:59.707Z,5.60
2023-04-14T06:53:27.657Z,5.80
2023-04-14T06:56:02.290Z,5.40
2023-04-14T06:58:30.426Z,5.70
2023-04-14T07:01:03.240Z,6.50
2023-04-14T07:03:31.762Z,5.70
2023-04-14T07:06:08.475Z,6.70
2023-04-14T07:08:36.596Z,7.20
2023-04-14T07:11:07.177Z,6.30
2023-04-14T07:13:36.285Z,6.70
2023-04-14T07:16:06.665Z,5.80
2023-04-14T07:18:36.219Z,6.80
2023-04-14T07:21:04.460Z,5.70
2023-04-14T07:23:33.885Z,5.70
2023-04-14T07:26:02.259Z,4.50
2023-04-14T07:28:30.264Z,5.90
2023-04-14T07:30:58.368Z,4.00
2023-04-14T07:33:30.563Z,5.20
2023-04-14T07:36:03.553Z,5.40
2023-04-14T07:38:33.220Z,5.10
2023-04-14T07:41:06.544Z,5.20
2023-04-14T07:43:37.553Z,5.10
2023-04-14T07:46:07.876Z,5.00
2023-04-14T07:48:37.459Z,4.90
2023-04-14T07:51:06.533Z,5.50
2023-04-14T07:53:40.630Z,4.60
2023-04-14T07:56:09.448Z,5.30
2023-04-14T07:58:38.062Z,4.30
2023-04-14T08:01:06.720Z,4.40
2023-04-14T08:03:38.026Z,4.60
2023-04-14T08:06:07.683Z,4.90
2023-04-14T08:08:36.219Z,4.50
2023-04-14T08:11:04.420Z,4.40
2023-04-14T08:13:32.376Z,4.20
2023-04-14T08:16:00.874Z,4.60
2023-04-14T08:18:29.120Z,4.20
2023-04-14T08:20:57.104Z,3.30
2023-04-14T08:23:25.148Z,5.00
2023-04-14T08:25:53.391Z,4.50
2023-04-14T08:28:21.394Z,4.00
2023-04-14T08:30:49.532Z,3.70
2023-04-14T08:33:17.627Z,4.40
2023-04-14T08:35:45.900Z,4.60
2023-04-14T08:38:24.608Z,3.80
2023-04-14T08:40:59.102Z,4.50
2023-04-14T08:43:27.326Z,4.20
2023-04-14T08:45:58.259Z,4.20
2023-04-14T08:48:30.840Z,4.20
2023-04-14T08:51:07.300Z,4.80
2023-04-14T08:53:43.016Z,4.10
2023-04-14T08:56:14.255Z,4.50
2023-04-14T08:58:43.227Z,4.40
2023-04-14T09:01:11.502Z,4.60
2023-04-14T09:03:41.175Z,4.20
2023-04-14T09:06:09.687Z,4.30
2023-04-14T09:08:38.473Z,4.30
2023-04-14T09:11:06.545Z,4.60
2023-04-14T09:13:36.158Z,4.60
2023-04-14T09:16:04.382Z,5.00
2023-04-14T09:18:34.470Z,4.30
2023-04-14T09:21:49.628Z,4.20
2023-04-14T09:23:52.674Z,4.70
2023-04-14T09:26:20.894Z,4.10
2023-04-14T09:28:48.769Z,4.30
2023-04-14T09:31:16.898Z,4.10
2023-04-14T09:33:52.891Z,3.90
2023-04-14T09:36:23.542Z,4.50
2023-04-14T09:38:51.990Z,4.20
2023-04-14T09:41:26.327Z,3.80
2023-04-14T09:43:54.249Z,4.10
2023-04-14T09:46:22.667Z,4.20
2023-04-14T09:48:56.147Z,4.10
2023-04-14T09:51:28.849Z,4.30
2023-04-14T09:54:03.099Z,4.40
2023-04-14T09:56:31.606Z,4.30
2023-04-14T09:59:01.441Z,4.20
2023-04-14T10:01:32.428Z,3.70
2023-04-14T10:04:02.329Z,3.90
2023-04-14T10:06:33.133Z,4.00
2023-04-14T10:09:02.036Z,3.70
2023-04-14T10:11:35.426Z,3.80
2023-04-14T10:14:05.524Z,3.30
2023-04-14T10:16:34.543Z,4.00
2023-04-14T10:19:03.916Z,3.90
2023-04-14T10:21:32.922Z,4.20
2023-04-14T10:24:01.663Z,3.60
2023-04-14T10:26:30.469Z,3.70
2023-04-14T10:28:59.484Z,3.30
2023-04-14T10:31:32.788Z,3.60
2023-04-14T10:34:14.926Z,3.40
2023-04-14T10:36:44.005Z,4.00
2023-04-14T10:39:13.004Z,3.50
2023-04-14T10:41:43.920Z,4.20
2023-04-14T10:44:24.927Z,3.70
2023-04-14T10:46:54.340Z,4.20
2023-04-14T10:49:25.861Z,4.00
2023-04-14T10:51:53.860Z,3.60
2023-04-14T10:54:22.078Z,3.80
2023-04-14T10:57:12.800Z,4.50
2023-04-14T10:59:42.636Z,4.10
2023-04-14T11:02:28.648Z,3.90
2023-04-14T11:05:11.861Z,3.70
2023-04-14T11:07:54.616Z,4.30
2023-04-14T11:10:23.038Z,4.20
2023-04-14T11:12:57.901Z,4.30
2023-04-14T11:15:57.436Z,3.90
2023-04-14T11:18:29.142Z,4.30
2023-04-14T11:21:07.665Z,4.10
2023-04-14T11:23:37.439Z,4.20
2023-04-14T11:26:06.746Z,3.90
2023-04-14T11:28:36.294Z,4.40
2023-04-14T11:31:10.843Z,4.00
2023-04-14T11:33:41.816Z,5.10
2023-04-14T11:36:13.102Z,4.70
2023-04-14T11:38:42.988Z,4.90
2023-04-14T11:41:14.197Z,4.50
2023-04-14T11:43:46.754Z,4.70
2023-04-14T11:46:16.467Z,4.80
2023-04-14T11:48:44.611Z,4.60
2023-04-14T11:51:12.732Z,4.60
2023-04-14T11:53:41.520Z,4.10
2023-04-14T11:56:11.686Z,4.60
2023-04-14T11:58:39.707Z,4.00
2023-04-14T12:01:14.505Z,3.80
2023-04-14T12:03:43.256Z,4.40
2023-04-14T12:06:11.606Z,4.40
2023-04-14T12:08:39.654Z,4.50
2023-04-14T12:11:17.678Z,4.80
2023-04-14T12:13:47.347Z,4.20
2023-04-14T12:16:17.067Z,4.40
2023-04-14T12:18:45.110Z,4.30
2023-04-14T12:21:18.717Z,4.40
2023-04-14T12:23:51.086Z,4.30
2023-04-14T12:26:20.627Z,4.40
2023-04-14T12:28:57.232Z,4.90
2023-04-14T12:31:30.138Z,3.70
2023-04-14T12:34:03.830Z,4.10
2023-04-14T12:36:45.383Z,4.40
2023-04-14T12:39:17.994Z,4.20
2023-04-14T12:41:47.014Z,4.20
2023-04-14T12:44:16.865Z,3.70
2023-04-14T12:46:52.932Z,4.00
2023-04-14T12:49:37.812Z,4.40
2023-04-14T12:52:08.457Z,4.40
2023-04-14T12:54:52.216Z,4.50
2023-04-14T12:57:22.065Z,3.90
2023-04-14T12:59:50.912Z,4.30
2023-04-14T13:02:19.188Z,4.30
2023-04-14T13:04:47.425Z,4.70
2023-04-14T13:07:15.452Z,4.20
2023-04-14T13:09:43.720Z,4.50
2023-04-14T13:12:11.800Z,3.70
2023-04-14T13:14:39.795Z,4.50
2023-04-14T13:17:07.910Z,4.00
2023-04-14T13:19:36.065Z,4.10
2023-04-14T13:22:03.993Z,4.10
2023-04-14T13:24:32.535Z,4.40
2023-04-14T13:27:01.106Z,4.00
2023-04-14T13:29:29.087Z,4.70
2023-04-14T13:31:57.088Z,5.10
2023-04-14T13:34:25.088Z,5.20
2023-04-14T13:36:53.096Z,4.60
2023-04-14T13:39:21.400Z,4.60
2023-04-14T13:41:49.585Z,4.70
2023-04-14T13:44:18.628Z,5.30
2023-04-14T13:46:46.667Z,5.80
2023-04-14T13:49:14.836Z,6.20
2023-04-14T13:51:43.069Z,6.30
2023-04-14T13:54:10.966Z,4.50
2023-04-14T13:56:38.974Z,4.50
2023-04-14T13:59:06.972Z,4.30
2023-04-14T14:01:34.826Z,4.80
2023-04-14T14:04:03.036Z,5.10
2023-04-14T14:06:31.437Z,5.60
2023-04-14T14:09:06.058Z,4.90
2023-04-14T14:14:02.881Z,5.00
2023-04-14T14:16:36.783Z,4.70
2023-04-14T14:19:10.090Z,5.70
2023-04-14T14:21:38.105Z,5.50
2023-04-14T14:24:06.369Z,5.40
2023-04-14T14:26:34.262Z,4.90
2023-04-14T14:29:02.280Z,4.50
2023-04-14T14:31:30.328Z,4.30
2023-04-14T14:33:58.346Z,5.10
2023-04-14T14:36:27.624Z,4.90
2023-04-14T14:38:55.657Z,3.70
2023-04-14T14:41:23.619Z,3.40
2023-04-14T14:43:51.471Z,3.80
2023-04-14T14:46:19.390Z,3.20
2023-04-14T14:48:47.403Z,2.90
2023-04-14T14:51:15.706Z,3.30
2023-04-14T14:53:43.410Z,3.30
2023-04-14T14:56:11.288Z,3.00
2023-04-14T14:58:39.120Z,3.40
2023-04-14T15:01:07.461Z,3.20
2023-04-14T15:03:35.676Z,3.40
2023-04-14T15:06:04.075Z,3.10
2023-04-14T15:08:31.940Z,3.80
2023-04-14T15:10:59.882Z,3.50
2023-04-14T15:13:28.274Z,3.30
2023-04-14T15:15:57.790Z,2.90
2023-04-14T15:18:26.008Z,2.80
2023-04-14T15:20:54.612Z,2.50
2023-04-14T15:23:23.036Z,2.50
2023-04-14T15:25:51.096Z,2.40
2023-04-14T15:28:19.068Z,2.60
2023-04-14T15:30:46.966Z,2.10
2023-04-14T15:33:14.882Z,1.80
2023-04-14T15:35:42.906Z,1.60
2023-04-14T15:38:11.039Z,1.70
2023-04-14T15:40:40.062Z,1.60
2023-04-14T15:43:08.102Z,2.40
2023-04-14T15:45:36.054Z,1.70
2023-04-14T15:48:04.184Z,1.50
2023-04-14T15:50:32.150Z,1.70
2023-04-14T15:53:00.035Z,1.80
2023-04-14T15:55:28.484Z,1.80
2023-04-14T15:57:56.534Z,2.10
2023-04-14T16:00:24.538Z,1.50
2023-04-14T16:02:52.498Z,1.80
2023-04-14T16:05:20.690Z,2.00
2023-04-14T16:07:48.865Z,1.50
2023-04-14T16:10:16.822Z,1.70
2023-04-14T16:12:45.168Z,2.40
2023-04-14T16:15:12.999Z,2.50
2023-04-14T16:17:42.377Z,1.80
2023-04-14T16:20:12.494Z,1.90
2023-04-14T16:22:40.573Z,1.80
2023-04-14T16:25:08.925Z,2.20
2023-04-14T16:27:36.839Z,2.00
2023-04-14T16:30:05.613Z,1.80
2023-04-14T16:32:33.579Z,1.70
2023-04-14T16:35:01.993Z,1.80
2023-04-14T16:37:30.146Z,1.60
2023-04-14T16:39:58.244Z,1.50
2023-04-14T16:42:26.571Z,3.50
2023-04-14T16:44:56.241Z,2.50
2023-04-14T16:47:24.184Z,1.80
2023-04-14T16:49:52.971Z,2.60
2023-04-14T16:52:20.963Z,2.80
2023-04-14T16:54:49.113Z,2.30
2023-04-14T16:57:17.098Z,2.50
2023-04-14T16:59:46.334Z,2.00
2023-04-14T17:02:14.521Z,1.40
2023-04-14T17:04:45.403Z,1.60
2023-04-14T17:07:13.500Z,2.20
2023-04-14T17:09:44.687Z,1.70
2023-04-14T17:12:12.605Z,1.90
2023-04-14T17:14:40.661Z,2.00
2023-04-14T17:17:08.676Z,1.90
2023-04-14T17:19:36.588Z,2.10
2023-04-14T17:22:04.601Z,2.10
2023-04-14T17:24:32.840Z,1.90
2023-04-14T17:27:00.767Z,2.30
2023-04-14T17:29:29.704Z,2.30
2023-04-14T17:31:57.813Z,3.00
2023-04-14T17:34:26.404Z,2.60
2023-04-14T17:36:54.504Z,2.60
2023-04-14T17:39:26.954Z,3.30
2023-04-14T17:41:56.362Z,4.00
2023-04-14T17:44:34.188Z,4.60
2023-04-14T17:47:04.931Z,5.00
2023-04-14T17:49:34.220Z,5.10
2023-04-14T17:52:17.694Z,4.80
2023-04-14T17:54:46.847Z,3.50
2023-04-14T17:57:15.008Z,3.80
2023-04-14T17:59:45.014Z,4.20
2023-04-14T18:02:14.321Z,4.00
2023-04-14T18:04:42.581Z,4.20
2023-04-14T18:07:10.473Z,4.10
2023-04-14T18:09:38.387Z,4.10
2023-04-14T18:12:06.317Z,3.80
2023-04-14T18:14:34.276Z,3.10
2023-04-14T18:17:02.294Z,3.80
2023-04-14T18:19:30.384Z,4.00
2023-04-14T18:21:58.198Z,3.40
2023-04-14T18:26:59.271Z,2.70
2023-04-14T18:29:27.736Z,5.60
2023-04-14T18:31:56.689Z,6.20
2023-04-14T18:34:24.802Z,7.80
2023-04-14T18:36:52.809Z,6.10
2023-04-14T18:39:20.829Z,5.90
2023-04-14T18:41:49.172Z,6.30
2023-04-14T18:44:17.635Z,6.70
2023-04-14T18:46:45.611Z,7.10
2023-04-14T18:49:13.837Z,7.70
2023-04-14T18:51:41.683Z,7.30
2023-04-14T18:54:10.679Z,6.40
2023-04-14T18:56:39.425Z,6.40
2023-04-14T18:59:10.171Z,6.00
2023-04-14T19:01:38.152Z,6.80
2023-04-14T19:04:08.051Z,6.00
2023-04-14T19:06:36.741Z,6.50
2023-04-14T19:09:05.228Z,5.70
2023-04-14T19:11:36.142Z,5.80
2023-04-14T19:14:04.824Z,5.60
2023-04-14T19:16:33.732Z,5.60
2023-04-14T19:19:02.249Z,4.90
2023-04-14T19:21:30.858Z,5.30
2023-04-14T19:23:58.759Z,5.60
2023-04-14T19:26:27.772Z,5.70
2023-04-14T19:28:58.916Z,6.30
2023-04-14T19:31:28.583Z,6.90
2023-04-14T19:33:58.685Z,7.20
2023-04-14T19:36:26.745Z,8.00
2023-04-14T19:38:54.653Z,8.00
2023-04-14T19:41:22.658Z,8.60
2023-04-14T19:43:52.242Z,7.90
2023-04-14T19:46:20.183Z,8.70
2023-04-14T19:48:48.405Z,9.50
2023-04-14T19:51:16.354Z,10.20
2023-04-14T19:53:46.566Z,9.40
2023-04-14T19:56:14.612Z,10.00
2023-04-14T19:58:43.687Z,10.60
2023-04-14T20:01:11.751Z,10.70
2023-04-14T20:04:07.812Z,9.50
2023-04-14T20:06:29.672Z,10.80
2023-04-14T20:08:57.499Z,9.50
2023-04-14T20:11:28.241Z,9.30
2023-04-14T20:13:56.314Z,9.60
2023-04-14T20:16:24.677Z,8.90
2023-04-14T20:18:52.682Z,9.20
2023-04-14T20:21:20.636Z,8.60
2023-04-14T20:23:48.911Z,8.60
2023-04-14T20:26:17.434Z,10.20
2023-04-14T20:28:45.742Z,8.90
2023-04-14T20:31:13.857Z,8.80
2023-04-14T20:33:42.233Z,9.20
2023-04-14T20:36:10.270Z,9.70
2023-04-14T20:38:38.240Z,9.50
2023-04-14T20:41:06.251Z,9.20
2023-04-14T20:43:34.516Z,9.10
2023-04-14T20:46:04.271Z,9.30
2023-04-14T20:48:32.392Z,8.80
2023-04-14T20:51:01.595Z,9.10
2023-04-14T20:53:30.237Z,10.10
2023-04-14T20:55:58.247Z,9.50
2023-04-14T20:58:26.129Z,9.90
2023-04-14T21:00:54.012Z,9.20
2023-04-14T21:03:24.108Z,10.00
2023-04-14T21:05:52.239Z,10.00
2023-04-14T21:08:20.159Z,10.00
2023-04-14T21:11:15.566Z,10.20
2023-04-14T21:15:28.938Z,10.70
2023-04-14T21:16:24.319Z,10.80
2023-04-14T21:18:52.289Z,11.90
2023-04-14T21:21:20.206Z,13.20
2023-04-14T21:23:48.212Z,14.40
2023-04-14T21:26:16.819Z,14.30
2023-04-14T21:28:44.853Z,14.40
2023-04-14T21:31:12.891Z,13.60
2023-04-14T21:33:42.040Z,12.80
2023-04-14T21:36:10.988Z,11.90
2023-04-14T21:38:39.405Z,12.20
2023-04-14T21:41:10.954Z,11.30
2023-04-14T21:43:38.916Z,11.50
2023-04-14T21:46:07.398Z,11.10
2023-04-14T21:48:35.856Z,11.50
2023-04-14T21:51:04.034Z,10.80
2023-04-14T21:53:32.545Z,12.30
2023-04-14T21:56:10.307Z,11.60
2023-04-14T21:58:40.462Z,11.80
2023-04-14T22:01:10.541Z,12.40
2023-04-14T22:03:40.860Z,11.00
2023-04-14T22:06:11.496Z,11.40
2023-04-14T22:08:40.681Z,10.30
2023-04-14T22:11:08.803Z,9.10
2023-04-14T22:13:36.734Z,8.10
2023-04-14T22:16:05.410Z,8.10
2023-04-14T22:18:33.397Z,6.90
2023-04-14T22:21:01.724Z,6.80
2023-04-14T22:23:29.867Z,7.60
2023-04-14T22:25:58.435Z,7.20
2023-04-14T22:28:27.396Z,7.30
2023-04-14T22:30:55.409Z,7.90
2023-04-14T22:33:23.409Z,8.00
2023-04-14T22:35:51.936Z,8.20
2023-04-14T22:38:19.816Z,8.30
2023-04-14T22:40:49.290Z,7.10
2023-04-14T22:43:18.679Z,7.00
2023-04-14T22:45:47.215Z,6.50
2023-04-14T22:48:15.138Z,6.50
2023-04-14T22:50:43.137Z,6.70
2023-04-14T22:53:10.978Z,6.10
2023-04-14T22:55:38.882Z,6.90
2023-04-14T22:58:07.359Z,7.30
2023-04-14T23:00:35.289Z,7.10
2023-04-14T23:03:03.385Z,7.30
2023-04-14T23:05:31.299Z,7.30
2023-04-14T23:07:59.444Z,7.30
2023-04-14T23:10:27.686Z,7.10
2023-04-14T23:12:55.645Z,6.80
2023-04-14T23:15:23.697Z,6.90
2023-04-14T23:17:51.816Z,6.40
2023-04-14T23:20:20.671Z,6.20
2023-04-14T23:22:48.663Z,5.90
2023-04-14T23:25:17.662Z,5.20
2023-04-14T23:27:45.658Z,5.20
2023-04-14T23:30:14.199Z,5.00
2023-04-14T23:32:42.253Z,4.90
2023-04-14T23:35:10.444Z,5.00
2023-04-14T23:37:39.074Z,5.20
2023-04-14T23:40:08.312Z,5.10
2023-04-14T23:42:36.219Z,5.40
2023-04-14T23:45:05.502Z,5.30
2023-04-14T23:47:33.559Z,5.30
2023-04-14T23:50:01.996Z,6.10
2023-04-14T23:52:29.953Z,5.50
2023-04-14T23:54:57.897Z,5.50
2023-04-14T23:57:26.855Z,5.30
2023-04-14T23:59:54.727Z,5.80
